createdAt,value
2023-10-11T00:00:47.269Z,12.89
2023-10-11T00:04:02.429Z,12.89
2023-10-11T00:07:03.257Z,12.89
2023-10-11T00:09:43.697Z,12.91
2023-10-11T00:12:20.578Z,12.92
2023-10-11T00:15:26.565Z,12.95
2023-10-11T00:18:22.066Z,12.98
2023-10-11T00:21:19.515Z,12.99
2023-10-11T00:23:57.345Z,13.01
2023-10-11T00:26:33.124Z,13.02
2023-10-11T00:29:06.818Z,13.03
2023-10-11T00:31:52.481Z,13.05
2023-10-11T00:34:25.638Z,13.08
2023-10-11T00:37:11.585Z,13.12
2023-10-11T00:39:54.509Z,13.15
2023-10-11T00:42:31.763Z,13.18
2023-10-11T00:45:24.010Z,13.19
2023-10-11T00:48:20.266Z,13.22
2023-10-11T00:50:54.539Z,13.28
2023-10-11T00:53:26.561Z,13.30
2023-10-11T00:56:17.332Z,13.31
2023-10-11T00:59:11.809Z,13.33
2023-10-11T01:01:52.229Z,13.36
2023-10-11T01:07:40.446Z,13.35
2023-10-11T01:10:46.079Z,13.34
2023-10-11T01:13:40.902Z,13.31
2023-10-11T01:16:15.478Z,13.30
2023-10-11T01:18:57.017Z,13.29
2023-10-11T01:21:33.752Z,13.27
2023-10-11T01:24:31.930Z,13.25
2023-10-11T01:27:04.678Z,13.27
2023-10-11T01:29:56.186Z,13.29
2023-10-11T01:32:34.139Z,13.32
2023-10-11T01:35:06.188Z,13.34
2023-10-11T01:38:00.719Z,13.35
2023-10-11T01:41:00.397Z,13.39
2023-10-11T01:43:54.927Z,13.42
2023-10-11T01:46:49.598Z,13.45
2023-10-11T01:49:53.735Z,13.47
2023-10-11T01:53:20.507Z,13.52
2023-10-11T01:56:18.897Z,13.54
2023-10-11T01:59:15.380Z,13.52
2023-10-11T02:02:08.290Z,13.47
2023-10-11T02:05:05.799Z,13.45
2023-10-11T02:07:49.357Z,13.45
2023-10-11T02:10:27.117Z,13.46
2023-10-11T02:13:07.386Z,13.51
2023-10-11T02:15:41.478Z,13.54
2023-10-11T02:18:25.953Z,13.57
2023-10-11T02:21:24.610Z,13.57
2023-10-11T02:24:00.942Z,13.57
2023-10-11T02:27:38.261Z,13.57
2023-10-11T02:30:25.846Z,13.61
2023-10-11T02:33:22.429Z,13.62
2023-10-11T02:36:50.754Z,13.62
2023-10-11T02:39:34.494Z,13.63
2023-10-11T02:42:13.176Z,13.64
2023-10-11T02:44:57.646Z,13.64
2023-10-11T02:47:55.697Z,13.63
2023-10-11T02:50:55.125Z,13.62
2023-10-11T02:53:49.717Z,13.59
2023-10-11T02:56:28.946Z,13.59
2023-10-11T02:58:59.377Z,13.59
2023-10-11T03:02:16.026Z,13.58
2023-10-11T03:04:49.616Z,13.54
2023-10-11T03:07:35.270Z,13.52
2023-10-11T03:10:23.511Z,13.51
2023-10-11T03:13:36.554Z,13.48
2023-10-11T03:16:45.378Z,13.47
2023-10-11T03:19:37.166Z,13.46
2023-10-11T03:22:31.058Z,13.45
2023-10-11T03:25:05.316Z,13.42
2023-10-11T03:28:32.149Z,13.40
2023-10-11T03:34:44.101Z,13.28
2023-10-11T03:38:24.828Z,13.20
2023-10-11T03:41:31.566Z,13.11
2023-10-11T03:44:27.357Z,13.08
2023-10-11T03:47:27.880Z,13.06
2023-10-11T03:50:54.063Z,13.03
2023-10-11T03:53:40.348Z,13.00
2023-10-11T03:56:46.399Z,12.96
2023-10-11T03:59:57.210Z,12.94
2023-10-11T04:03:27.560Z,12.89
2023-10-11T04:06:53.414Z,12.83
2023-10-11T04:09:45.399Z,12.78
2023-10-11T04:12:24.524Z,12.75
2023-10-11T04:15:25.298Z,12.74
2023-10-11T04:18:59.488Z,12.75
2023-10-11T04:22:13.144Z,12.76
2023-10-11T04:25:23.211Z,12.77
2023-10-11T04:28:44.751Z,12.80
2023-10-11T04:31:36.857Z,12.83
2023-10-11T04:35:02.715Z,12.84
2023-10-11T04:38:35.640Z,12.86
2023-10-11T04:41:03.981Z,12.90
2023-10-11T04:44:14.504Z,12.91
2023-10-11T04:47:25.142Z,12.90
2023-10-11T04:50:14.445Z,12.88
2023-10-11T04:52:50.245Z,12.89
2023-10-11T04:55:35.789Z,12.89
2023-10-11T04:58:33.299Z,12.88
2023-10-11T05:01:14.438Z,12.85
2023-10-11T05:04:04.087Z,12.83
2023-10-11T05:06:49.041Z,12.79
2023-10-11T05:10:01.501Z,12.75
2023-10-11T05:13:44.548Z,12.70
2023-10-11T05:16:48.342Z,12.66
2023-10-11T05:19:41.086Z,12.62
2023-10-11T05:22:33.706Z,12.57
2023-10-11T05:25:07.118Z,12.52
2023-10-11T05:27:48.278Z,12.48
2023-10-11T05:30:48.054Z,12.43
2023-10-11T05:33:38.901Z,12.38
2023-10-11T05:36:43.861Z,12.35
2023-10-11T05:39:42.438Z,12.33
2023-10-11T05:42:34.291Z,12.33
2023-10-11T05:45:47.319Z,12.33
2023-10-11T05:49:02.704Z,12.35
2023-10-11T05:51:43.064Z,12.39
2023-10-11T05:54:28.918Z,12.45
2023-10-11T05:57:25.940Z,12.53
2023-10-11T06:00:10.921Z,12.57
2023-10-11T06:02:38.824Z,12.64
2023-10-11T06:05:11.469Z,12.71
2023-10-11T06:07:39.714Z,12.80
2023-10-11T06:10:08.473Z,12.88
2023-10-11T06:12:38.449Z,12.95
2023-10-11T06:15:16.970Z,13.02
2023-10-11T06:17:50.029Z,13.08
2023-10-11T06:20:27.765Z,13.11
2023-10-11T06:22:55.967Z,13.15
2023-10-11T06:25:44.364Z,13.19
2023-10-11T06:28:33.561Z,13.24
2023-10-11T06:31:04.361Z,13.28
2023-10-11T06:34:01.596Z,13.33
2023-10-11T06:36:50.399Z,13.42
2023-10-11T06:40:08.352Z,13.49
2023-10-11T06:42:41.783Z,13.54
2023-10-11T06:45:19.188Z,13.56
2023-10-11T06:48:15.700Z,13.58
2023-10-11T06:50:59.275Z,13.60
2023-10-11T06:53:33.877Z,13.60
2023-10-11T06:56:09.834Z,13.61
2023-10-11T06:58:45.598Z,13.62
2023-10-11T07:01:31.738Z,13.64
2023-10-11T07:04:06.303Z,13.64
2023-10-11T07:06:36.222Z,13.69
2023-10-11T07:09:30.372Z,13.73
2023-10-11T07:12:40.263Z,13.80
2023-10-11T07:15:14.049Z,13.90
2023-10-11T07:17:44.453Z,14.01
2023-10-11T07:20:37.901Z,14.09
2023-10-11T07:23:19.495Z,14.14
2023-10-11T07:26:21.899Z,14.15
2023-10-11T07:28:54.207Z,14.19
2023-10-11T07:31:33.881Z,14.24
2023-10-11T07:34:29.392Z,14.29
2023-10-11T07:37:05.904Z,14.37
2023-10-11T07:39:44.081Z,14.43
2023-10-11T07:42:19.607Z,14.48
2023-10-11T07:44:52.627Z,14.55
2023-10-11T07:47:53.969Z,14.62
2023-10-11T07:50:42.392Z,14.70
2023-10-11T07:53:17.961Z,14.74
2023-10-11T07:55:54.068Z,14.78
2023-10-11T07:58:27.308Z,14.85
2023-10-11T08:01:31.556Z,14.93
2023-10-11T08:04:15.742Z,14.98
2023-10-11T08:07:21.478Z,15.04
2023-10-11T08:09:58.031Z,15.16
2023-10-11T08:12:31.046Z,15.28
2023-10-11T08:15:05.384Z,15.39
2023-10-11T08:17:41.849Z,15.49
2023-10-11T08:20:25.083Z,15.56
2023-10-11T08:23:36.483Z,15.62
2023-10-11T08:26:08.020Z,15.71
2023-10-11T08:28:36.974Z,15.82
2023-10-11T08:31:13.807Z,15.94
2023-10-11T08:33:54.511Z,16.10
2023-10-11T08:36:32.709Z,16.25
2023-10-11T08:39:10.075Z,16.38
2023-10-11T08:41:46.944Z,16.54
2023-10-11T08:44:21.479Z,16.68
2023-10-11T08:46:54.914Z,16.83
2023-10-11T08:49:42.803Z,16.92
2023-10-11T08:52:54.657Z,16.96
2023-10-11T08:55:40.679Z,16.95
2023-10-11T08:58:56.525Z,16.95
2023-10-11T09:01:52.058Z,16.92
2023-10-11T09:04:39.964Z,16.93
2023-10-11T09:07:30.051Z,16.94
2023-10-11T09:10:46.717Z,16.95
2023-10-11T09:13:33.124Z,16.99
2023-10-11T09:17:35.821Z,17.05
2023-10-11T09:20:44.325Z,17.17
2023-10-11T09:23:21.390Z,17.29
2023-10-11T09:26:03.930Z,17.40
2023-10-11T09:28:34.763Z,17.52
2023-10-11T09:31:53.491Z,17.63
2023-10-11T09:34:50.056Z,17.83
2023-10-11T09:37:43.836Z,18.03
2023-10-11T09:40:54.230Z,18.29
2023-10-11T09:43:31.694Z,18.52
2023-10-11T09:46:12.255Z,18.64
2023-10-11T09:49:14.945Z,18.67
2023-10-11T09:51:45.195Z,18.68
2023-10-11T09:54:18.838Z,18.66
2023-10-11T09:58:01.262Z,18.68
2023-10-11T10:01:20.559Z,18.76
2023-10-11T10:04:22.015Z,18.95
2023-10-11T10:07:21.729Z,19.09
2023-10-11T10:10:12.381Z,19.24
2023-10-11T10:12:56.823Z,19.36
2023-10-11T10:15:34.325Z,19.50
2023-10-11T10:18:49.574Z,19.63
2023-10-11T10:22:45.084Z,19.86
2023-10-11T10:25:54.943Z,19.99
2023-10-11T10:28:46.597Z,20.08
2023-10-11T10:31:23.225Z,20.16
2023-10-11T10:34:32.067Z,20.23
2023-10-11T10:37:07.521Z,20.26
2023-10-11T10:40:15.304Z,20.33
2023-10-11T10:43:07.578Z,20.46
2023-10-11T10:45:39.185Z,20.57
2023-10-11T10:48:19.395Z,20.74
2023-10-11T10:51:08.633Z,20.82
2023-10-11T10:53:59.351Z,20.88
2023-10-11T10:56:39.379Z,20.96
2023-10-11T10:59:13.586Z,20.99
2023-10-11T11:01:46.178Z,21.05
2023-10-11T11:04:44.607Z,21.18
2023-10-11T11:07:27.340Z,21.35
2023-10-11T11:10:10.243Z,21.35
2023-10-11T11:12:45.932Z,21.42
2023-10-11T11:15:59.870Z,21.53
2023-10-11T11:18:36.993Z,21.72
2023-10-11T11:21:31.677Z,21.90
2023-10-11T11:24:31.273Z,22.07
2023-10-11T11:27:13.330Z,22.08
2023-10-11T11:29:52.281Z,22.22
2023-10-11T11:32:43.721Z,22.36
2023-10-11T11:35:33.835Z,22.38
2023-10-11T11:38:10.717Z,22.44
2023-10-11T11:40:38.558Z,22.41
2023-10-11T11:43:11.773Z,22.44
2023-10-11T11:45:39.545Z,22.37
2023-10-11T11:48:07.250Z,22.40
2023-10-11T11:50:40.465Z,22.58
2023-10-11T11:53:21.860Z,22.65
2023-10-11T11:56:18.825Z,22.78
2023-10-11T11:59:02.364Z,22.76
2023-10-11T12:01:37.568Z,22.78
2023-10-11T12:04:21.279Z,22.75
2023-10-11T12:07:11.186Z,22.74
2023-10-11T12:10:02.213Z,22.63
2023-10-11T12:12:43.431Z,22.61
2023-10-11T12:15:18.026Z,22.71
2023-10-11T12:17:55.711Z,22.89
2023-10-11T12:20:35.679Z,22.99
2023-10-11T12:23:09.878Z,23.09
2023-10-11T12:25:37.677Z,23.19
2023-10-11T12:28:06.778Z,23.25
2023-10-11T12:30:43.344Z,23.31
2023-10-11T12:33:11.128Z,23.42
2023-10-11T12:35:45.792Z,23.43
2023-10-11T12:38:13.279Z,23.38
2023-10-11T12:40:45.622Z,23.12
2023-10-11T12:43:14.876Z,22.90
2023-10-11T12:45:42.994Z,22.81
2023-10-11T12:48:13.689Z,22.91
2023-10-11T12:50:41.925Z,22.90
2023-10-11T12:53:20.489Z,22.94
2023-10-11T12:55:50.749Z,22.93
2023-10-11T12:58:20.208Z,22.91
2023-10-11T13:00:52.941Z,22.91
2023-10-11T13:03:26.950Z,22.85
2023-10-11T13:05:54.533Z,22.70
2023-10-11T13:08:25.198Z,22.64
2023-10-11T13:11:03.848Z,22.65
2023-10-11T13:13:34.748Z,22.81
2023-10-11T13:16:03.161Z,22.97
2023-10-11T13:18:39.191Z,23.01
2023-10-11T13:21:13.947Z,23.12
2023-10-11T13:23:41.145Z,23.39
2023-10-11T13:26:23.111Z,23.48
2023-10-11T13:28:54.779Z,23.39
2023-10-11T13:31:31.944Z,23.37
2023-10-11T13:33:59.214Z,23.27
2023-10-11T13:36:34.002Z,23.17
2023-10-11T13:39:04.264Z,23.07
2023-10-11T13:41:34.943Z,22.99
2023-10-11T13:44:05.477Z,22.95
2023-10-11T13:46:36.916Z,22.89
2023-10-11T13:49:25.053Z,22.86
2023-10-11T13:52:07.922Z,22.80
2023-10-11T13:54:43.904Z,22.72
2023-10-11T13:57:42.107Z,22.69
2023-10-11T14:00:38.600Z,22.61
2023-10-11T14:03:33.133Z,22.57
2023-10-11T14:06:24.905Z,22.51
2023-10-11T14:09:19.468Z,22.43
2023-10-11T14:11:51.810Z,22.39
2023-10-11T14:14:31.894Z,22.41
2023-10-11T14:17:26.211Z,22.47
2023-10-11T14:20:02.291Z,22.46
2023-10-11T14:23:08.785Z,22.40
2023-10-11T14:25:53.370Z,22.40
2023-10-11T14:28:27.656Z,22.43
2023-10-11T14:31:24.887Z,22.44
2023-10-11T14:34:43.969Z,22.44
2023-10-11T14:37:20.516Z,22.44
2023-10-11T14:40:00.319Z,22.43
2023-10-11T14:43:41.270Z,22.42
2023-10-11T14:46:21.735Z,22.41
2023-10-11T14:48:54.136Z,22.36
2023-10-11T14:51:43.311Z,22.36
2023-10-11T14:54:16.999Z,22.31
2023-10-11T14:57:09.580Z,22.24
2023-10-11T14:59:44.132Z,22.11
2023-10-11T15:02:48.974Z,21.94
2023-10-11T15:05:25.770Z,21.76
2023-10-11T15:07:58.623Z,21.59
2023-10-11T15:10:36.683Z,21.49
2023-10-11T15:13:22.941Z,21.43
2023-10-11T15:15:54.255Z,21.34
2023-10-11T15:18:28.196Z,21.28
2023-10-11T15:21:35.548Z,21.23
2023-10-11T15:24:31.343Z,21.21
2023-10-11T15:27:05.879Z,21.20
2023-10-11T15:29:33.089Z,21.18
2023-10-11T15:32:04.726Z,21.12
2023-10-11T15:38:03.049Z,20.90
2023-10-11T15:40:32.690Z,20.78
2023-10-11T15:43:05.551Z,20.67
2023-10-11T15:45:36.255Z,20.60
2023-10-11T15:48:21.340Z,20.52
2023-10-11T15:51:19.844Z,20.40
2023-10-11T15:53:47.690Z,20.32
2023-10-11T15:56:23.900Z,20.22
2023-10-11T15:58:50.967Z,20.13
2023-10-11T16:01:53.718Z,20.02
2023-10-11T16:04:31.905Z,19.97
2023-10-11T16:07:23.448Z,19.95
2023-10-11T16:10:00.532Z,19.91
2023-10-11T16:12:44.629Z,19.79
2023-10-11T16:15:15.318Z,19.69
2023-10-11T16:18:19.060Z,19.57
2023-10-11T16:21:45.134Z,19.49
2023-10-11T16:24:49.259Z,19.38
2023-10-11T16:27:48.089Z,19.28
2023-10-11T16:30:35.563Z,19.22
2023-10-11T16:33:08.190Z,19.14
2023-10-11T16:35:52.946Z,19.06
2023-10-11T16:38:57.726Z,18.92
2023-10-11T16:41:28.625Z,18.77
2023-10-11T16:44:08.601Z,18.68
2023-10-11T16:46:38.959Z,18.61
2023-10-11T16:49:17.142Z,18.55
2023-10-11T16:51:55.554Z,18.47
2023-10-11T16:55:09.400Z,18.38
2023-10-11T16:58:04.018Z,18.29
2023-10-11T17:00:57.673Z,18.23
2023-10-11T17:12:24.041Z,18.05
2023-10-11T17:18:57.534Z,18.05
2023-10-11T17:21:28.385Z,18.05
2023-10-11T17:23:55.570Z,18.03
2023-10-11T17:26:32.806Z,18.00
2023-10-11T17:29:06.576Z,17.96
2023-10-11T17:31:49.878Z,17.94
2023-10-11T17:34:20.177Z,17.93
2023-10-11T17:36:59.613Z,17.96
2023-10-11T17:39:27.148Z,18.00
2023-10-11T17:41:58.444Z,18.06
2023-10-11T17:44:29.619Z,18.13
2023-10-11T17:46:57.060Z,18.17
2023-10-11T17:50:12.069Z,18.21
2023-10-11T17:53:05.126Z,18.24
2023-10-11T17:55:32.312Z,18.25
2023-10-11T17:58:16.388Z,18.25
2023-10-11T18:00:44.936Z,18.26
2023-10-11T18:03:17.814Z,18.27
2023-10-11T18:06:41.681Z,18.26
2023-10-11T18:09:54.041Z,18.25
2023-10-11T18:12:57.021Z,18.23
2023-10-11T18:15:45.516Z,18.20
2023-10-11T18:19:07.530Z,18.17
2023-10-11T18:23:22.291Z,18.21
2023-10-11T18:26:17.904Z,18.27
2023-10-11T18:29:04.752Z,18.28
2023-10-11T18:32:00.773Z,18.33
2023-10-11T18:34:53.315Z,18.45
2023-10-11T18:37:45.625Z,18.44
2023-10-11T18:40:32.066Z,18.45
2023-10-11T18:43:19.420Z,18.48
2023-10-11T18:45:46.971Z,18.48
2023-10-11T18:48:20.740Z,18.49
2023-10-11T18:51:10.356Z,18.49
2023-10-11T18:53:41.501Z,18.52
2023-10-11T18:56:09.091Z,18.55
2023-10-11T18:58:40.180Z,18.57
2023-10-11T19:01:07.412Z,18.56
2023-10-11T19:03:40.174Z,18.53
2023-10-11T19:06:16.956Z,18.56
2023-10-11T19:09:35.470Z,18.57
2023-10-11T19:13:00.455Z,18.61
2023-10-11T19:16:27.455Z,18.59
2023-10-11T19:19:46.556Z,18.55
2023-10-11T19:22:46.499Z,18.57
2023-10-11T19:26:41.866Z,18.59
2023-10-11T19:29:15.484Z,18.59
2023-10-11T19:32:09.003Z,18.62
2023-10-11T19:35:12.643Z,18.62
2023-10-11T19:38:19.941Z,18.66
2023-10-11T19:41:52.193Z,18.73
2023-10-11T19:44:41.459Z,18.79
2023-10-11T19:47:18.812Z,18.81
2023-10-11T19:50:43.852Z,18.84
2023-10-11T19:54:08.756Z,18.89
2023-10-11T19:56:41.401Z,18.89
2023-10-11T19:59:33.306Z,18.88
2023-10-11T20:07:04.497Z,18.91
2023-10-11T20:11:58.792Z,18.90
2023-10-11T20:14:56.791Z,18.90
2023-10-11T20:17:27.248Z,18.93
2023-10-11T20:19:57.389Z,18.97
2023-10-11T20:22:28.737Z,18.98
2023-10-11T20:25:53.198Z,19.05
2023-10-11T20:29:36.820Z,19.02
2023-10-11T20:33:34.566Z,19.02
2023-10-11T20:37:11.851Z,19.02
2023-10-11T20:41:03.500Z,19.12
2023-10-11T20:48:26.417Z,19.21
2023-10-11T20:52:49.478Z,19.20
2023-10-11T20:55:53.316Z,19.23
2023-10-11T20:58:44.133Z,19.26
2023-10-11T21:01:26.396Z,19.28
2023-10-11T21:04:21.149Z,19.32
2023-10-11T21:07:41.052Z,19.30
2023-10-11T21:11:07.832Z,19.23
2023-10-11T21:18:48.835Z,19.19
2023-10-11T21:22:01.994Z,19.19
2023-10-11T21:29:20.996Z,19.02
2023-10-11T21:33:14.490Z,18.96
2023-10-11T21:36:29.848Z,18.92
2023-10-11T21:39:11.474Z,18.87
2023-10-11T21:42:01.793Z,18.80
2023-10-11T21:44:40.361Z,18.73
2023-10-11T21:47:15.990Z,18.67
2023-10-11T22:04:44.298Z,18.41
2023-10-11T22:08:11.296Z,18.36
2023-10-11T22:14:55.016Z,18.30
2023-10-11T22:18:44.833Z,18.25
2023-10-11T22:21:40.793Z,18.13
2023-10-11T22:29:17.219Z,17.97
2023-10-11T22:32:34.837Z,17.88
2023-10-11T22:36:17.174Z,17.82
2023-10-11T22:40:25.803Z,17.78
2023-10-11T22:43:52.956Z,17.70
2023-10-11T22:50:48.664Z,17.63
2023-10-11T22:54:02.159Z,17.57
2023-10-11T22:56:41.420Z,17.55
2023-10-11T22:59:49.266Z,17.52
2023-10-11T23:03:06.282Z,17.44
2023-10-11T23:05:50.188Z,17.40
2023-10-11T23:08:44.733Z,17.40
2023-10-11T23:11:31.579Z,17.37
2023-10-11T23:14:46.548Z,17.34
2023-10-11T23:18:01.601Z,17.32
2023-10-11T23:21:48.500Z,17.30
2023-10-11T23:24:32.323Z,17.28
2023-10-11T23:27:50.592Z,17.24
2023-10-11T23:30:55.767Z,17.22
2023-10-11T23:34:47.552Z,17.18
2023-10-11T23:38:15.232Z,17.15
2023-10-11T23:41:50.980Z,17.13
2023-10-11T23:48:21.419Z,17.17
2023-10-11T23:51:40.756Z,17.20
2023-10-11T23:55:13.034Z,17.25
